sensor_id;sensor_type;location;lat;lon;timestamp;P1;durP1;ratioP1;P2;durP2;ratioP2
75858;SDS011;64504;51.308;8.620;2023-05-07T00:00:44;3.45;;;2.47;;
75858;SDS011;64504;51.308;8.620;2023-05-07T00:03:09;3.03;;;2.53;;
75858;SDS011;64504;51.308;8.620;2023-05-07T00:05:36;2.40;;;2.25;;
75858;SDS011;64504;51.308;8.620;2023-05-07T00:08:04;2.65;;;2.42;;
75858;SDS011;64504;51.308;8.620;2023-05-07T00:10:29;5.53;;;2.15;;
75858;SDS011;64504;51.308;8.620;2023-05-07T00:12:55;2.60;;;2.40;;
75858;SDS011;64504;51.308;8.620;2023-05-07T00:15:20;2.00;;;1.90;;
75858;SDS011;64504;51.308;8.620;2023-05-07T00:17:46;2.17;;;1.92;;
75858;SDS011;64504;51.308;8.620;2023-05-07T00:20:11;5.00;;;2.28;;
75858;SDS011;64504;51.308;8.620;2023-05-07T00:22:37;6.50;;;2.67;;
75858;SDS011;64504;51.308;8.620;2023-05-07T00:25:03;4.32;;;3.25;;
75858;SDS011;64504;51.308;8.620;2023-05-07T00:27:28;2.47;;;2.22;;
75858;SDS011;64504;51.308;8.620;2023-05-07T00:29:54;4.90;;;2.30;;
75858;SDS011;64504;51.308;8.620;2023-05-07T00:32:20;5.13;;;2.85;;
75858;SDS011;64504;51.308;8.620;2023-05-07T00:34:46;6.35;;;3.33;;
75858;SDS011;64504;51.308;8.620;2023-05-07T00:37:12;2.67;;;2.45;;
75858;SDS011;64504;51.308;8.620;2023-05-07T00:39:37;5.25;;;3.63;;
75858;SDS011;64504;51.308;8.620;2023-05-07T00:42:03;3.25;;;2.70;;
75858;SDS011;64504;51.308;8.620;2023-05-07T00:44:29;4.80;;;3.35;;
75858;SDS011;64504;51.308;8.620;2023-05-07T00:46:55;3.42;;;3.13;;
75858;SDS011;64504;51.308;8.620;2023-05-07T00:49:22;2.78;;;2.55;;
75858;SDS011;64504;51.308;8.620;2023-05-07T00:51:48;3.03;;;2.28;;
75858;SDS011;64504;51.308;8.620;2023-05-07T00:54:13;3.60;;;3.13;;
75858;SDS011;64504;51.308;8.620;2023-05-07T00:56:39;2.58;;;2.30;;
75858;SDS011;64504;51.308;8.620;2023-05-07T00:59:05;7.40;;;3.05;;
75858;SDS011;64504;51.308;8.620;2023-05-07T01:01:31;4.07;;;3.35;;
75858;SDS011;64504;51.308;8.620;2023-05-07T01:03:56;3.63;;;3.30;;
75858;SDS011;64504;51.308;8.620;2023-05-07T01:06:23;2.97;;;2.67;;
75858;SDS011;64504;51.308;8.620;2023-05-07T01:08:50;3.63;;;3.33;;
75858;SDS011;64504;51.308;8.620;2023-05-07T01:11:17;4.13;;;3.35;;
75858;SDS011;64504;51.308;8.620;2023-05-07T01:13:45;8.55;;;3.42;;
75858;SDS011;64504;51.308;8.620;2023-05-07T01:16:11;6.00;;;3.53;;
75858;SDS011;64504;51.308;8.620;2023-05-07T01:18:38;3.55;;;3.22;;
75858;SDS011;64504;51.308;8.620;2023-05-07T01:21:04;8.75;;;3.50;;
75858;SDS011;64504;51.308;8.620;2023-05-07T01:23:30;3.58;;;2.95;;
75858;SDS011;64504;51.308;8.620;2023-05-07T01:25:55;5.05;;;3.83;;
75858;SDS011;64504;51.308;8.620;2023-05-07T01:28:21;3.33;;;3.05;;
75858;SDS011;64504;51.308;8.620;2023-05-07T01:30:49;5.72;;;3.78;;
75858;SDS011;64504;51.308;8.620;2023-05-07T01:33:18;12.98;;;4.47;;
75858;SDS011;64504;51.308;8.620;2023-05-07T01:35:47;4.38;;;3.90;;
75858;SDS011;64504;51.308;8.620;2023-05-07T01:38:14;4.53;;;4.13;;
75858;SDS011;64504;51.308;8.620;2023-05-07T01:40:39;2.90;;;2.70;;
75858;SDS011;64504;51.308;8.620;2023-05-07T01:43:06;4.40;;;4.03;;
75858;SDS011;64504;51.308;8.620;2023-05-07T01:45:33;5.50;;;3.88;;
75858;SDS011;64504;51.308;8.620;2023-05-07T01:48:01;7.30;;;4.75;;
75858;SDS011;64504;51.308;8.620;2023-05-07T01:50:27;8.20;;;4.00;;
75858;SDS011;64504;51.308;8.620;2023-05-07T01:52:53;4.80;;;3.10;;
75858;SDS011;64504;51.308;8.620;2023-05-07T01:55:19;13.98;;;4.80;;
75858;SDS011;64504;51.308;8.620;2023-05-07T01:57:45;3.92;;;3.63;;
75858;SDS011;64504;51.308;8.620;2023-05-07T02:00:10;3.70;;;3.35;;
75858;SDS011;64504;51.308;8.620;2023-05-07T02:02:37;7.60;;;3.70;;
75858;SDS011;64504;51.308;8.620;2023-05-07T02:05:03;4.20;;;3.80;;
75858;SDS011;64504;51.308;8.620;2023-05-07T02:07:29;4.82;;;3.65;;
75858;SDS011;64504;51.308;8.620;2023-05-07T02:09:55;9.68;;;5.15;;
75858;SDS011;64504;51.308;8.620;2023-05-07T02:12:23;4.90;;;4.45;;
75858;SDS011;64504;51.308;8.620;2023-05-07T02:14:49;7.20;;;3.80;;
75858;SDS011;64504;51.308;8.620;2023-05-07T02:17:15;4.82;;;3.47;;
75858;SDS011;64504;51.308;8.620;2023-05-07T02:19:41;10.95;;;4.00;;
75858;SDS011;64504;51.308;8.620;2023-05-07T02:22:07;7.75;;;4.45;;
75858;SDS011;64504;51.308;8.620;2023-05-07T02:24:33;6.60;;;5.18;;
75858;SDS011;64504;51.308;8.620;2023-05-07T02:26:58;9.77;;;4.53;;
75858;SDS011;64504;51.308;8.620;2023-05-07T02:29:24;4.88;;;3.90;;
75858;SDS011;64504;51.308;8.620;2023-05-07T02:31:50;20.00;;;4.43;;
75858;SDS011;64504;51.308;8.620;2023-05-07T02:34:18;8.40;;;4.53;;
75858;SDS011;64504;51.308;8.620;2023-05-07T02:36:45;5.63;;;4.10;;
75858;SDS011;64504;51.308;8.620;2023-05-07T02:39:11;5.38;;;4.10;;
75858;SDS011;64504;51.308;8.620;2023-05-07T02:41:37;6.40;;;5.20;;
75858;SDS011;64504;51.308;8.620;2023-05-07T02:44:03;6.50;;;4.93;;
75858;SDS011;64504;51.308;8.620;2023-05-07T02:46:28;9.35;;;5.10;;
75858;SDS011;64504;51.308;8.620;2023-05-07T02:48:54;6.35;;;3.92;;
75858;SDS011;64504;51.308;8.620;2023-05-07T02:51:21;12.38;;;4.47;;
75858;SDS011;64504;51.308;8.620;2023-05-07T02:53:47;7.03;;;4.82;;
75858;SDS011;64504;51.308;8.620;2023-05-07T02:56:13;9.90;;;5.95;;
75858;SDS011;64504;51.308;8.620;2023-05-07T02:58:38;6.85;;;5.18;;
75858;SDS011;64504;51.308;8.620;2023-05-07T03:01:05;7.57;;;5.68;;
75858;SDS011;64504;51.308;8.620;2023-05-07T03:03:31;6.10;;;5.07;;
75858;SDS011;64504;51.308;8.620;2023-05-07T03:05:56;5.03;;;4.53;;
75858;SDS011;64504;51.308;8.620;2023-05-07T03:08:22;5.30;;;4.68;;
75858;SDS011;64504;51.308;8.620;2023-05-07T03:10:47;5.50;;;4.40;;
75858;SDS011;64504;51.308;8.620;2023-05-07T03:13:13;6.25;;;4.93;;
75858;SDS011;64504;51.308;8.620;2023-05-07T03:15:39;4.65;;;4.25;;
75858;SDS011;64504;51.308;8.620;2023-05-07T03:18:05;3.72;;;3.40;;
75858;SDS011;64504;51.308;8.620;2023-05-07T03:20:31;6.18;;;4.43;;
75858;SDS011;64504;51.308;8.620;2023-05-07T03:22:56;5.80;;;5.20;;
75858;SDS011;64504;51.308;8.620;2023-05-07T03:25:22;5.05;;;4.30;;
75858;SDS011;64504;51.308;8.620;2023-05-07T03:27:47;8.70;;;7.03;;
75858;SDS011;64504;51.308;8.620;2023-05-07T03:30:13;15.05;;;12.38;;
75858;SDS011;64504;51.308;8.620;2023-05-07T03:32:39;14.35;;;12.77;;
75858;SDS011;64504;51.308;8.620;2023-05-07T03:35:04;16.00;;;14.30;;
75858;SDS011;64504;51.308;8.620;2023-05-07T03:37:30;17.38;;;14.20;;
75858;SDS011;64504;51.308;8.620;2023-05-07T03:39:56;16.58;;;12.60;;
75858;SDS011;64504;51.308;8.620;2023-05-07T03:42:28;15.80;;;14.18;;
75858;SDS011;64504;51.308;8.620;2023-05-07T03:44:54;20.30;;;15.55;;
75858;SDS011;64504;51.308;8.620;2023-05-07T03:47:22;14.75;;;13.02;;
75858;SDS011;64504;51.308;8.620;2023-05-07T03:49:47;16.40;;;13.02;;
75858;SDS011;64504;51.308;8.620;2023-05-07T03:52:14;25.38;;;14.40;;
75858;SDS011;64504;51.308;8.620;2023-05-07T03:54:40;17.40;;;13.20;;
75858;SDS011;64504;51.308;8.620;2023-05-07T03:57:06;18.92;;;16.20;;
75858;SDS011;64504;51.308;8.620;2023-05-07T03:59:31;21.75;;;16.02;;
75858;SDS011;64504;51.308;8.620;2023-05-07T04:01:56;21.20;;;17.10;;
75858;SDS011;64504;51.308;8.620;2023-05-07T04:04:22;23.45;;;17.80;;
75858;SDS011;64504;51.308;8.620;2023-05-07T04:06:48;18.23;;;16.33;;
75858;SDS011;64504;51.308;8.620;2023-05-07T04:09:14;17.85;;;15.95;;
75858;SDS011;64504;51.308;8.620;2023-05-07T04:11:40;31.70;;;18.08;;
75858;SDS011;64504;51.308;8.620;2023-05-07T04:14:06;26.80;;;17.60;;
75858;SDS011;64504;51.308;8.620;2023-05-07T04:16:31;27.20;;;19.27;;
75858;SDS011;64504;51.308;8.620;2023-05-07T04:18:56;22.48;;;19.63;;
75858;SDS011;64504;51.308;8.620;2023-05-07T04:21:24;23.30;;;19.23;;
75858;SDS011;64504;51.308;8.620;2023-05-07T04:23:50;21.90;;;19.00;;
75858;SDS011;64504;51.308;8.620;2023-05-07T04:26:16;23.15;;;19.75;;
75858;SDS011;64504;51.308;8.620;2023-05-07T04:28:41;21.25;;;19.15;;
75858;SDS011;64504;51.308;8.620;2023-05-07T04:31:07;26.33;;;18.50;;
75858;SDS011;64504;51.308;8.620;2023-05-07T04:33:33;24.35;;;19.63;;
75858;SDS011;64504;51.308;8.620;2023-05-07T04:36:02;24.75;;;19.33;;
75858;SDS011;64504;51.308;8.620;2023-05-07T04:38:29;28.88;;;21.85;;
75858;SDS011;64504;51.308;8.620;2023-05-07T04:40:55;24.38;;;21.45;;
75858;SDS011;64504;51.308;8.620;2023-05-07T04:43:22;24.73;;;20.80;;
75858;SDS011;64504;51.308;8.620;2023-05-07T04:45:51;23.35;;;19.83;;
75858;SDS011;64504;51.308;8.620;2023-05-07T04:48:18;24.77;;;19.80;;
75858;SDS011;64504;51.308;8.620;2023-05-07T04:50:49;25.65;;;20.85;;
75858;SDS011;64504;51.308;8.620;2023-05-07T04:53:15;26.17;;;21.35;;
75858;SDS011;64504;51.308;8.620;2023-05-07T04:55:44;24.83;;;19.63;;
75858;SDS011;64504;51.308;8.620;2023-05-07T04:58:10;28.20;;;21.05;;
75858;SDS011;64504;51.308;8.620;2023-05-07T05:00:37;24.92;;;20.17;;
75858;SDS011;64504;51.308;8.620;2023-05-07T05:03:05;26.00;;;19.92;;
75858;SDS011;64504;51.308;8.620;2023-05-07T05:05:36;20.80;;;18.13;;
75858;SDS011;64504;51.308;8.620;2023-05-07T05:08:01;27.40;;;18.55;;
75858;SDS011;64504;51.308;8.620;2023-05-07T05:10:27;27.45;;;19.65;;
75858;SDS011;64504;51.308;8.620;2023-05-07T05:12:53;28.17;;;19.40;;
75858;SDS011;64504;51.308;8.620;2023-05-07T05:15:18;24.80;;;20.00;;
75858;SDS011;64504;51.308;8.620;2023-05-07T05:17:44;22.63;;;19.98;;
75858;SDS011;64504;51.308;8.620;2023-05-07T05:20:10;30.15;;;20.05;;
75858;SDS011;64504;51.308;8.620;2023-05-07T05:22:38;27.42;;;22.35;;
75858;SDS011;64504;51.308;8.620;2023-05-07T05:25:03;25.65;;;21.25;;
75858;SDS011;64504;51.308;8.620;2023-05-07T05:27:30;30.30;;;21.95;;
75858;SDS011;64504;51.308;8.620;2023-05-07T05:29:56;22.77;;;20.35;;
75858;SDS011;64504;51.308;8.620;2023-05-07T05:32:22;27.95;;;25.05;;
75858;SDS011;64504;51.308;8.620;2023-05-07T05:34:47;29.33;;;23.10;;
75858;SDS011;64504;51.308;8.620;2023-05-07T05:37:14;27.90;;;24.90;;
75858;SDS011;64504;51.308;8.620;2023-05-07T05:39:43;41.00;;;26.27;;
75858;SDS011;64504;51.308;8.620;2023-05-07T05:42:09;33.17;;;25.40;;
75858;SDS011;64504;51.308;8.620;2023-05-07T05:44:34;42.42;;;29.70;;
75858;SDS011;64504;51.308;8.620;2023-05-07T05:47:00;39.08;;;28.23;;
75858;SDS011;64504;51.308;8.620;2023-05-07T05:49:26;30.30;;;25.00;;
75858;SDS011;64504;51.308;8.620;2023-05-07T05:51:51;32.45;;;26.35;;
75858;SDS011;64504;51.308;8.620;2023-05-07T05:54:17;37.88;;;25.65;;
75858;SDS011;64504;51.308;8.620;2023-05-07T05:56:43;28.65;;;23.52;;
75858;SDS011;64504;51.308;8.620;2023-05-07T05:59:09;27.83;;;21.10;;
75858;SDS011;64504;51.308;8.620;2023-05-07T06:01:35;32.38;;;24.95;;
75858;SDS011;64504;51.308;8.620;2023-05-07T06:04:01;32.25;;;23.42;;
75858;SDS011;64504;51.308;8.620;2023-05-07T06:06:26;39.72;;;24.88;;
75858;SDS011;64504;51.308;8.620;2023-05-07T06:08:52;36.72;;;26.98;;
75858;SDS011;64504;51.308;8.620;2023-05-07T06:11:18;38.67;;;26.60;;
75858;SDS011;64504;51.308;8.620;2023-05-07T06:13:43;34.05;;;28.85;;
75858;SDS011;64504;51.308;8.620;2023-05-07T06:16:08;32.78;;;25.50;;
75858;SDS011;64504;51.308;8.620;2023-05-07T06:18:34;30.35;;;24.52;;
75858;SDS011;64504;51.308;8.620;2023-05-07T06:21:02;38.10;;;25.52;;
75858;SDS011;64504;51.308;8.620;2023-05-07T06:23:30;33.38;;;27.45;;
75858;SDS011;64504;51.308;8.620;2023-05-07T06:25:57;29.98;;;24.85;;
75858;SDS011;64504;51.308;8.620;2023-05-07T06:28:24;30.50;;;26.95;;
75858;SDS011;64504;51.308;8.620;2023-05-07T06:31:10;31.55;;;26.00;;
75858;SDS011;64504;51.308;8.620;2023-05-07T06:33:46;38.13;;;27.58;;
75858;SDS011;64504;51.308;8.620;2023-05-07T06:36:12;36.58;;;25.60;;
75858;SDS011;64504;51.308;8.620;2023-05-07T06:38:38;29.92;;;24.63;;
75858;SDS011;64504;51.308;8.620;2023-05-07T06:41:03;38.13;;;26.40;;
75858;SDS011;64504;51.308;8.620;2023-05-07T06:43:31;30.05;;;26.15;;
75858;SDS011;64504;51.308;8.620;2023-05-07T06:45:57;31.58;;;27.38;;
75858;SDS011;64504;51.308;8.620;2023-05-07T06:48:22;37.58;;;26.80;;
75858;SDS011;64504;51.308;8.620;2023-05-07T06:50:48;31.13;;;26.92;;
75858;SDS011;64504;51.308;8.620;2023-05-07T06:53:14;33.75;;;25.92;;
75858;SDS011;64504;51.308;8.620;2023-05-07T06:55:40;35.47;;;25.50;;
75858;SDS011;64504;51.308;8.620;2023-05-07T06:58:07;34.33;;;28.45;;
75858;SDS011;64504;51.308;8.620;2023-05-07T07:00:34;31.95;;;26.00;;
75858;SDS011;64504;51.308;8.620;2023-05-07T07:03:04;38.72;;;25.88;;
75858;SDS011;64504;51.308;8.620;2023-05-07T07:05:29;33.85;;;27.45;;
75858;SDS011;64504;51.308;8.620;2023-05-07T07:07:57;35.03;;;27.42;;
75858;SDS011;64504;51.308;8.620;2023-05-07T07:10:22;30.02;;;24.88;;
75858;SDS011;64504;51.308;8.620;2023-05-07T07:12:48;36.17;;;28.60;;
75858;SDS011;64504;51.308;8.620;2023-05-07T07:15:14;40.45;;;29.10;;
75858;SDS011;64504;51.308;8.620;2023-05-07T07:17:40;33.83;;;27.85;;
75858;SDS011;64504;51.308;8.620;2023-05-07T07:20:06;31.35;;;24.23;;
75858;SDS011;64504;51.308;8.620;2023-05-07T07:22:33;38.42;;;26.58;;
75858;SDS011;64504;51.308;8.620;2023-05-07T07:24:59;31.55;;;26.05;;
75858;SDS011;64504;51.308;8.620;2023-05-07T07:27:27;36.78;;;25.20;;
75858;SDS011;64504;51.308;8.620;2023-05-07T07:29:52;30.90;;;24.38;;
75858;SDS011;64504;51.308;8.620;2023-05-07T07:32:18;30.05;;;22.50;;
75858;SDS011;64504;51.308;8.620;2023-05-07T07:34:45;29.55;;;21.13;;
75858;SDS011;64504;51.308;8.620;2023-05-07T07:37:10;34.67;;;23.30;;
75858;SDS011;64504;51.308;8.620;2023-05-07T07:39:36;33.63;;;21.75;;
75858;SDS011;64504;51.308;8.620;2023-05-07T07:42:04;29.92;;;20.73;;
75858;SDS011;64504;51.308;8.620;2023-05-07T07:44:30;29.50;;;21.60;;
75858;SDS011;64504;51.308;8.620;2023-05-07T07:46:55;29.02;;;22.48;;
75858;SDS011;64504;51.308;8.620;2023-05-07T07:49:20;34.92;;;23.95;;
75858;SDS011;64504;51.308;8.620;2023-05-07T07:51:46;25.13;;;20.83;;
75858;SDS011;64504;51.308;8.620;2023-05-07T07:54:12;27.90;;;21.77;;
75858;SDS011;64504;51.308;8.620;2023-05-07T07:56:38;27.00;;;20.17;;
75858;SDS011;64504;51.308;8.620;2023-05-07T07:59:03;25.35;;;21.42;;
75858;SDS011;64504;51.308;8.620;2023-05-07T08:01:30;23.70;;;17.77;;
75858;SDS011;64504;51.308;8.620;2023-05-07T08:03:56;19.92;;;16.42;;
75858;SDS011;64504;51.308;8.620;2023-05-07T08:06:23;22.45;;;18.67;;
75858;SDS011;64504;51.308;8.620;2023-05-07T08:08:50;19.20;;;15.93;;
75858;SDS011;64504;51.308;8.620;2023-05-07T08:11:18;19.15;;;15.95;;
75858;SDS011;64504;51.308;8.620;2023-05-07T08:13:45;22.83;;;18.05;;
75858;SDS011;64504;51.308;8.620;2023-05-07T08:16:10;21.10;;;16.30;;
75858;SDS011;64504;51.308;8.620;2023-05-07T08:18:36;20.13;;;17.15;;
75858;SDS011;64504;51.308;8.620;2023-05-07T08:21:02;21.58;;;17.30;;
75858;SDS011;64504;51.308;8.620;2023-05-07T08:23:28;27.90;;;18.48;;
75858;SDS011;64504;51.308;8.620;2023-05-07T08:25:54;20.40;;;16.45;;
75858;SDS011;64504;51.308;8.620;2023-05-07T08:28:21;22.92;;;17.67;;
75858;SDS011;64504;51.308;8.620;2023-05-07T08:30:46;29.27;;;21.05;;
75858;SDS011;64504;51.308;8.620;2023-05-07T08:33:12;26.02;;;19.02;;
75858;SDS011;64504;51.308;8.620;2023-05-07T08:35:37;25.30;;;19.73;;
75858;SDS011;64504;51.308;8.620;2023-05-07T08:38:03;23.92;;;18.42;;
75858;SDS011;64504;51.308;8.620;2023-05-07T08:40:30;22.60;;;20.23;;
75858;SDS011;64504;51.308;8.620;2023-05-07T08:42:59;26.35;;;20.48;;
75858;SDS011;64504;51.308;8.620;2023-05-07T08:45:26;21.60;;;19.25;;
75858;SDS011;64504;51.308;8.620;2023-05-07T08:47:57;27.40;;;19.25;;
75858;SDS011;64504;51.308;8.620;2023-05-07T08:50:25;24.63;;;20.33;;
75858;SDS011;64504;51.308;8.620;2023-05-07T08:52:52;29.65;;;19.67;;
75858;SDS011;64504;51.308;8.620;2023-05-07T08:55:19;24.98;;;18.80;;
75858;SDS011;64504;51.308;8.620;2023-05-07T08:57:45;28.50;;;20.30;;
75858;SDS011;64504;51.308;8.620;2023-05-07T09:00:12;31.23;;;22.50;;
75858;SDS011;64504;51.308;8.620;2023-05-07T09:02:38;25.83;;;19.05;;
75858;SDS011;64504;51.308;8.620;2023-05-07T09:05:04;22.05;;;18.30;;
75858;SDS011;64504;51.308;8.620;2023-05-07T09:07:30;30.35;;;19.20;;
75858;SDS011;64504;51.308;8.620;2023-05-07T09:09:56;20.83;;;17.70;;
75858;SDS011;64504;51.308;8.620;2023-05-07T09:12:22;29.58;;;17.48;;
75858;SDS011;64504;51.308;8.620;2023-05-07T09:14:48;28.05;;;17.63;;
75858;SDS011;64504;51.308;8.620;2023-05-07T09:17:15;23.17;;;17.85;;
75858;SDS011;64504;51.308;8.620;2023-05-07T09:19:41;23.10;;;18.10;;
75858;SDS011;64504;51.308;8.620;2023-05-07T09:22:06;22.73;;;17.73;;
75858;SDS011;64504;51.308;8.620;2023-05-07T09:24:32;21.52;;;16.50;;
75858;SDS011;64504;51.308;8.620;2023-05-07T09:27:02;19.50;;;16.33;;
75858;SDS011;64504;51.308;8.620;2023-05-07T09:29:32;20.55;;;17.17;;
75858;SDS011;64504;51.308;8.620;2023-05-07T09:32:04;21.83;;;14.48;;
75858;SDS011;64504;51.308;8.620;2023-05-07T09:34:31;16.48;;;13.98;;
75858;SDS011;64504;51.308;8.620;2023-05-07T09:36:59;23.35;;;16.75;;
75858;SDS011;64504;51.308;8.620;2023-05-07T09:39:25;27.65;;;18.38;;
75858;SDS011;64504;51.308;8.620;2023-05-07T09:41:51;26.63;;;16.30;;
75858;SDS011;64504;51.308;8.620;2023-05-07T09:44:20;23.27;;;16.60;;
75858;SDS011;64504;51.308;8.620;2023-05-07T09:46:46;20.15;;;16.33;;
75858;SDS011;64504;51.308;8.620;2023-05-07T09:49:23;22.95;;;16.20;;
75858;SDS011;64504;51.308;8.620;2023-05-07T09:51:50;18.42;;;14.93;;
75858;SDS011;64504;51.308;8.620;2023-05-07T09:54:17;20.10;;;13.90;;
75858;SDS011;64504;51.308;8.620;2023-05-07T09:56:44;19.35;;;15.27;;
75858;SDS011;64504;51.308;8.620;2023-05-07T09:59:12;25.15;;;17.65;;
75858;SDS011;64504;51.308;8.620;2023-05-07T10:01:40;18.33;;;13.25;;
75858;SDS011;64504;51.308;8.620;2023-05-07T10:04:07;20.92;;;15.75;;
75858;SDS011;64504;51.308;8.620;2023-05-07T10:06:34;20.52;;;16.15;;
75858;SDS011;64504;51.308;8.620;2023-05-07T10:09:04;20.90;;;16.33;;
75858;SDS011;64504;51.308;8.620;2023-05-07T10:11:34;26.73;;;17.75;;
75858;SDS011;64504;51.308;8.620;2023-05-07T10:14:00;28.17;;;18.48;;
75858;SDS011;64504;51.308;8.620;2023-05-07T10:16:30;19.23;;;16.95;;
75858;SDS011;64504;51.308;8.620;2023-05-07T10:18:58;26.90;;;19.00;;
75858;SDS011;64504;51.308;8.620;2023-05-07T10:21:25;17.48;;;14.20;;
75858;SDS011;64504;51.308;8.620;2023-05-07T10:23:55;21.15;;;16.10;;
75858;SDS011;64504;51.308;8.620;2023-05-07T10:26:24;21.95;;;16.02;;
75858;SDS011;64504;51.308;8.620;2023-05-07T10:28:53;22.30;;;15.15;;
75858;SDS011;64504;51.308;8.620;2023-05-07T10:33:59;15.35;;;13.85;;
75858;SDS011;64504;51.308;8.620;2023-05-07T10:36:25;24.33;;;14.48;;
75858;SDS011;64504;51.308;8.620;2023-05-07T10:38:51;17.17;;;14.40;;
75858;SDS011;64504;51.308;8.620;2023-05-07T10:41:16;20.48;;;14.60;;
75858;SDS011;64504;51.308;8.620;2023-05-07T10:43:44;17.52;;;13.82;;
75858;SDS011;64504;51.308;8.620;2023-05-07T10:51:27;25.13;;;14.13;;
75858;SDS011;64504;51.308;8.620;2023-05-07T10:56:37;14.88;;;11.02;;
75858;SDS011;64504;51.308;8.620;2023-05-07T11:01:57;21.90;;;11.50;;
75858;SDS011;64504;51.308;8.620;2023-05-07T11:04:24;16.42;;;12.13;;
75858;SDS011;64504;51.308;8.620;2023-05-07T11:13:04;18.70;;;9.82;;
75858;SDS011;64504;51.308;8.620;2023-05-07T11:15:11;16.08;;;11.20;;
75858;SDS011;64504;51.308;8.620;2023-05-07T11:17:54;20.23;;;11.75;;
75858;SDS011;64504;51.308;8.620;2023-05-07T11:20:20;11.32;;;10.23;;
75858;SDS011;64504;51.308;8.620;2023-05-07T11:22:49;11.13;;;9.85;;
75858;SDS011;64504;51.308;8.620;2023-05-07T11:25:18;12.40;;;11.15;;
75858;SDS011;64504;51.308;8.620;2023-05-07T11:27:46;15.40;;;9.82;;
75858;SDS011;64504;51.308;8.620;2023-05-07T11:30:21;9.18;;;7.88;;
75858;SDS011;64504;51.308;8.620;2023-05-07T11:32:49;13.70;;;10.38;;
75858;SDS011;64504;51.308;8.620;2023-05-07T11:35:15;12.10;;;9.05;;
75858;SDS011;64504;51.308;8.620;2023-05-07T11:37:41;10.52;;;9.50;;
75858;SDS011;64504;51.308;8.620;2023-05-07T11:40:07;10.98;;;8.88;;
75858;SDS011;64504;51.308;8.620;2023-05-07T11:42:36;12.68;;;9.50;;
75858;SDS011;64504;51.308;8.620;2023-05-07T11:45:02;11.52;;;9.50;;
75858;SDS011;64504;51.308;8.620;2023-05-07T11:47:32;10.00;;;8.98;;
75858;SDS011;64504;51.308;8.620;2023-05-07T11:50:02;13.77;;;10.05;;
75858;SDS011;64504;51.308;8.620;2023-05-07T11:52:32;17.23;;;10.40;;
75858;SDS011;64504;51.308;8.620;2023-05-07T11:54:59;12.18;;;9.50;;
75858;SDS011;64504;51.308;8.620;2023-05-07T11:57:26;11.15;;;8.25;;
75858;SDS011;64504;51.308;8.620;2023-05-07T11:59:55;11.20;;;9.57;;
75858;SDS011;64504;51.308;8.620;2023-05-07T12:02:21;12.55;;;8.15;;
75858;SDS011;64504;51.308;8.620;2023-05-07T12:04:47;10.80;;;7.85;;
75858;SDS011;64504;51.308;8.620;2023-05-07T12:07:13;9.48;;;8.55;;
75858;SDS011;64504;51.308;8.620;2023-05-07T12:09:40;11.18;;;8.20;;
75858;SDS011;64504;51.308;8.620;2023-05-07T12:12:06;11.77;;;9.85;;
75858;SDS011;64504;51.308;8.620;2023-05-07T12:14:32;13.40;;;9.32;;
75858;SDS011;64504;51.308;8.620;2023-05-07T12:17:00;9.40;;;7.25;;
75858;SDS011;64504;51.308;8.620;2023-05-07T12:19:29;12.13;;;8.45;;
75858;SDS011;64504;51.308;8.620;2023-05-07T12:21:55;11.20;;;8.48;;
75858;SDS011;64504;51.308;8.620;2023-05-07T12:24:21;8.38;;;7.47;;
75858;SDS011;64504;51.308;8.620;2023-05-07T12:26:48;15.20;;;9.00;;
75858;SDS011;64504;51.308;8.620;2023-05-07T12:29:14;10.52;;;9.07;;
75858;SDS011;64504;51.308;8.620;2023-05-07T12:31:42;10.73;;;9.50;;
75858;SDS011;64504;51.308;8.620;2023-05-07T12:34:10;10.23;;;8.05;;
75858;SDS011;64504;51.308;8.620;2023-05-07T12:36:39;11.00;;;8.23;;
75858;SDS011;64504;51.308;8.620;2023-05-07T12:39:06;15.38;;;9.10;;
75858;SDS011;64504;51.308;8.620;2023-05-07T12:44:21;11.88;;;7.95;;
75858;SDS011;64504;51.308;8.620;2023-05-07T12:46:48;8.10;;;6.97;;
75858;SDS011;64504;51.308;8.620;2023-05-07T12:49:14;8.73;;;6.72;;
75858;SDS011;64504;51.308;8.620;2023-05-07T12:51:39;12.63;;;9.18;;
75858;SDS011;64504;51.308;8.620;2023-05-07T12:54:07;7.65;;;6.93;;
75858;SDS011;64504;51.308;8.620;2023-05-07T12:56:35;8.85;;;6.82;;
75858;SDS011;64504;51.308;8.620;2023-05-07T12:59:01;10.30;;;7.53;;
75858;SDS011;64504;51.308;8.620;2023-05-07T13:01:30;6.70;;;6.13;;
75858;SDS011;64504;51.308;8.620;2023-05-07T13:03:59;6.13;;;5.53;;
75858;SDS011;64504;51.308;8.620;2023-05-07T13:06:26;9.68;;;7.70;;
75858;SDS011;64504;51.308;8.620;2023-05-07T13:08:51;6.95;;;6.25;;
75858;SDS011;64504;51.308;8.620;2023-05-07T13:11:17;6.13;;;5.63;;
75858;SDS011;64504;51.308;8.620;2023-05-07T13:13:42;7.45;;;6.63;;
75858;SDS011;64504;51.308;8.620;2023-05-07T13:16:09;5.90;;;5.30;;
75858;SDS011;64504;51.308;8.620;2023-05-07T13:18:37;6.53;;;5.90;;
75858;SDS011;64504;51.308;8.620;2023-05-07T13:21:03;6.47;;;5.82;;
75858;SDS011;64504;51.308;8.620;2023-05-07T13:23:29;6.57;;;5.40;;
75858;SDS011;64504;51.308;8.620;2023-05-07T13:25:55;6.75;;;5.95;;
75858;SDS011;64504;51.308;8.620;2023-05-07T13:28:21;7.43;;;6.00;;
75858;SDS011;64504;51.308;8.620;2023-05-07T13:30:47;5.45;;;4.95;;
75858;SDS011;64504;51.308;8.620;2023-05-07T13:33:12;7.50;;;5.22;;
75858;SDS011;64504;51.308;8.620;2023-05-07T13:35:38;14.63;;;6.05;;
75858;SDS011;64504;51.308;8.620;2023-05-07T13:38:03;6.22;;;5.10;;
75858;SDS011;64504;51.308;8.620;2023-05-07T13:40:29;6.60;;;5.70;;
75858;SDS011;64504;51.308;8.620;2023-05-07T13:42:56;7.97;;;6.78;;
75858;SDS011;64504;51.308;8.620;2023-05-07T13:45:23;7.28;;;5.10;;
75858;SDS011;64504;51.308;8.620;2023-05-07T13:47:50;6.50;;;6.00;;
75858;SDS011;64504;51.308;8.620;2023-05-07T13:50:16;8.07;;;5.97;;
75858;SDS011;64504;51.308;8.620;2023-05-07T13:52:44;7.88;;;6.85;;
75858;SDS011;64504;51.308;8.620;2023-05-07T13:55:17;6.53;;;5.85;;
75858;SDS011;64504;51.308;8.620;2023-05-07T13:57:43;5.78;;;4.95;;
75858;SDS011;64504;51.308;8.620;2023-05-07T14:00:09;6.93;;;5.07;;
75858;SDS011;64504;51.308;8.620;2023-05-07T14:02:35;7.10;;;5.38;;
75858;SDS011;64504;51.308;8.620;2023-05-07T14:05:00;6.93;;;5.47;;
75858;SDS011;64504;51.308;8.620;2023-05-07T14:07:28;6.43;;;5.82;;
75858;SDS011;64504;51.308;8.620;2023-05-07T14:09:54;6.43;;;5.68;;
75858;SDS011;64504;51.308;8.620;2023-05-07T14:12:20;6.13;;;5.05;;
75858;SDS011;64504;51.308;8.620;2023-05-07T14:14:46;7.32;;;6.50;;
75858;SDS011;64504;51.308;8.620;2023-05-07T14:17:12;6.10;;;5.47;;
75858;SDS011;64504;51.308;8.620;2023-05-07T14:19:37;7.40;;;5.80;;
75858;SDS011;64504;51.308;8.620;2023-05-07T14:22:03;6.53;;;5.47;;
75858;SDS011;64504;51.308;8.620;2023-05-07T14:24:28;7.90;;;6.20;;
75858;SDS011;64504;51.308;8.620;2023-05-07T14:26:54;6.47;;;5.97;;
75858;SDS011;64504;51.308;8.620;2023-05-07T14:29:20;5.00;;;4.55;;
75858;SDS011;64504;51.308;8.620;2023-05-07T14:31:45;6.47;;;5.15;;
75858;SDS011;64504;51.308;8.620;2023-05-07T14:34:11;6.55;;;5.93;;
75858;SDS011;64504;51.308;8.620;2023-05-07T14:36:36;4.90;;;4.50;;
75858;SDS011;64504;51.308;8.620;2023-05-07T14:39:03;5.25;;;4.75;;
75858;SDS011;64504;51.308;8.620;2023-05-07T14:41:29;7.47;;;5.35;;
75858;SDS011;64504;51.308;8.620;2023-05-07T14:43:54;8.75;;;4.97;;
75858;SDS011;64504;51.308;8.620;2023-05-07T14:46:20;5.15;;;4.63;;
75858;SDS011;64504;51.308;8.620;2023-05-07T14:48:45;9.52;;;4.60;;
75858;SDS011;64504;51.308;8.620;2023-05-07T14:51:11;8.48;;;5.55;;